createdAt,value
2018-01-13T00:01:31.246Z,102240
2018-01-13T00:04:01.112Z,102246
2018-01-13T00:06:31.117Z,102244
2018-01-13T00:09:00.983Z,102245
2018-01-13T00:11:30.881Z,102241
2018-01-13T00:14:00.739Z,102242
2018-01-13T00:16:30.774Z,102238
2018-01-13T00:19:00.644Z,102246
2018-01-13T00:21:30.549Z,102237
2018-01-13T00:24:00.408Z,102247
2018-01-13T00:26:30.254Z,102239
2018-01-13T00:29:00.157Z,102236
2018-01-13T00:31:30.040Z,102236
2018-01-13T00:33:59.930Z,102232
2018-01-13T00:36:29.793Z,102231
2018-01-13T00:38:59.678Z,102224
2018-01-13T00:41:29.597Z,102232
2018-01-13T00:43:59.454Z,102231
2018-01-13T00:46:29.400Z,102233
2018-01-13T00:48:59.281Z,102227
2018-01-13T00:51:29.192Z,102239
2018-01-13T00:53:59.057Z,102232
2018-01-13T00:56:28.936Z,102235
2018-01-13T00:58:58.809Z,102238
2018-01-13T01:01:28.660Z,102233
2018-01-13T01:03:58.529Z,102229
2018-01-13T01:06:28.392Z,102231
2018-01-13T01:08:58.374Z,102231
2018-01-13T01:11:28.238Z,102240
2018-01-13T01:13:58.114Z,102238
2018-01-13T01:16:27.960Z,102241
2018-01-13T01:18:57.865Z,102240
2018-01-13T01:21:27.742Z,102199
2018-01-13T01:23:58.629Z,102235
2018-01-13T01:26:28.517Z,102240
2018-01-13T01:28:58.398Z,102239
2018-01-13T01:31:28.281Z,102248
2018-01-13T01:33:58.337Z,102242
2018-01-13T01:36:28.253Z,102244
2018-01-13T01:38:58.112Z,102249
2018-01-13T01:41:28.203Z,102246
2018-01-13T01:43:58.290Z,102244
2018-01-13T01:46:28.191Z,102246
2018-01-13T01:48:58.065Z,102245
2018-01-13T01:51:27.967Z,102240
2018-01-13T01:53:57.849Z,102250
2018-01-13T01:56:27.905Z,102255
2018-01-13T01:58:57.773Z,102243
2018-01-13T02:01:27.659Z,102240
2018-01-13T02:03:57.567Z,102242
2018-01-13T02:06:27.513Z,102243
2018-01-13T02:08:57.407Z,102243
2018-01-13T02:11:27.269Z,102244
2018-01-13T02:13:57.197Z,102251
2018-01-13T02:16:27.081Z,102239
2018-01-13T02:18:56.976Z,102244
2018-01-13T02:21:26.858Z,102243
2018-01-13T02:23:56.738Z,102241
2018-01-13T02:26:26.772Z,102245
2018-01-13T02:28:56.629Z,102242
2018-01-13T02:31:27.604Z,102240
2018-01-13T02:33:57.589Z,102238
2018-01-13T02:36:27.480Z,102236
2018-01-13T02:38:57.347Z,102233
2018-01-13T02:41:27.247Z,102238
2018-01-13T02:43:57.099Z,102238
2018-01-13T02:46:27.175Z,102232
2018-01-13T02:48:57.025Z,102237
2018-01-13T02:51:26.924Z,102236
2018-01-13T02:53:56.787Z,102233
2018-01-13T02:56:26.719Z,102232
2018-01-13T02:58:56.620Z,102240
2018-01-13T03:01:26.485Z,102238
2018-01-13T03:03:56.430Z,102229
2018-01-13T03:06:26.342Z,102232
2018-01-13T03:08:56.211Z,102228
2018-01-13T03:11:26.080Z,102223
2018-01-13T03:13:56.131Z,102229
2018-01-13T03:16:25.994Z,102223
2018-01-13T03:18:55.879Z,102228
2018-01-13T03:21:25.756Z,102221
2018-01-13T03:23:55.704Z,102228
2018-01-13T03:26:25.536Z,102221
2018-01-13T03:28:55.412Z,102225
2018-01-13T03:31:25.291Z,102228
2018-01-13T03:33:55.178Z,102226
2018-01-13T03:36:25.173Z,102226
2018-01-13T03:38:55.761Z,102218
2018-01-13T03:41:25.654Z,102222
2018-01-13T03:43:55.516Z,102219
2018-01-13T03:46:25.421Z,102217
2018-01-13T03:48:55.287Z,102222
2018-01-13T03:51:25.276Z,102220
2018-01-13T03:53:55.182Z,102231
2018-01-13T03:56:25.278Z,102218
2018-01-13T03:58:55.144Z,102221
2018-01-13T04:01:25.031Z,102225
2018-01-13T04:03:54.911Z,102210
2018-01-13T04:06:24.865Z,102219
2018-01-13T04:08:54.858Z,102217
2018-01-13T04:11:24.722Z,102211
2018-01-13T04:13:54.623Z,102208
2018-01-13T04:16:24.569Z,102206
2018-01-13T04:18:54.617Z,102206
2018-01-13T04:21:24.513Z,102204
2018-01-13T04:23:54.445Z,102210
2018-01-13T04:26:24.579Z,102204
2018-01-13T04:28:54.594Z,102214
2018-01-13T04:31:24.615Z,102212
2018-01-13T04:33:54.514Z,102208
2018-01-13T04:36:24.392Z,102213
2018-01-13T04:38:54.346Z,102211
2018-01-13T04:41:24.223Z,102214
2018-01-13T04:43:54.147Z,102209
2018-01-13T04:46:24.037Z,102209
2018-01-13T04:48:53.931Z,102209
2018-01-13T04:51:24.702Z,102207
2018-01-13T04:53:54.575Z,102209
2018-01-13T04:56:24.467Z,102212
2018-01-13T04:58:54.340Z,102212
2018-01-13T05:01:24.236Z,102213
2018-01-13T05:03:54.108Z,102209
2018-01-13T05:06:24.023Z,102206
2018-01-13T05:08:53.901Z,102207
2018-01-13T05:11:23.803Z,102216
2018-01-13T05:13:53.721Z,102211
2018-01-13T05:16:23.613Z,102218
2018-01-13T05:18:53.499Z,102217
2018-01-13T05:21:23.374Z,102208
2018-01-13T05:23:53.313Z,102217
2018-01-13T05:26:23.211Z,102211
2018-01-13T05:28:53.215Z,102210
2018-01-13T05:31:23.075Z,102212
2018-01-13T05:33:53.811Z,102213
2018-01-13T05:36:23.674Z,102214
2018-01-13T05:38:53.561Z,102211
2018-01-13T05:41:23.469Z,102206
2018-01-13T05:43:53.458Z,102212
2018-01-13T05:46:23.433Z,102201
2018-01-13T05:48:53.359Z,102208
2018-01-13T05:51:23.237Z,102203
2018-01-13T05:53:53.166Z,102204
2018-01-13T05:56:23.042Z,102217
2018-01-13T05:58:52.967Z,102211
2018-01-13T06:01:22.840Z,102212
2018-01-13T06:03:52.776Z,102202
2018-01-13T06:06:22.658Z,102204
2018-01-13T06:08:52.613Z,102204
2018-01-13T06:11:23.286Z,102201
2018-01-13T06:13:53.236Z,102202
2018-01-13T06:16:23.199Z,102203
2018-01-13T06:18:53.093Z,102211
2018-01-13T06:21:23.009Z,102202
2018-01-13T06:23:52.915Z,102232
2018-01-13T06:26:22.786Z,102202
2018-01-13T06:28:52.645Z,102203
2018-01-13T06:31:22.555Z,102201
2018-01-13T06:33:52.452Z,102202
2018-01-13T06:36:22.368Z,102201
2018-01-13T06:38:52.294Z,102215
2018-01-13T06:41:22.144Z,102206
2018-01-13T06:43:52.031Z,102211
2018-01-13T06:46:21.894Z,102209
2018-01-13T06:48:51.801Z,102208
2018-01-13T06:51:21.715Z,102203
2018-01-13T06:53:51.584Z,102202
2018-01-13T06:56:21.571Z,102206
2018-01-13T06:58:51.466Z,102209
2018-01-13T07:01:21.367Z,102212
2018-01-13T07:03:51.312Z,102208
2018-01-13T07:06:21.344Z,102213
2018-01-13T07:08:51.221Z,102210
2018-01-13T07:11:22.223Z,102221
2018-01-13T07:13:52.054Z,102217
2018-01-13T07:16:21.997Z,102219
2018-01-13T07:18:51.943Z,102211
2018-01-13T07:21:21.877Z,102222
2018-01-13T07:23:51.794Z,102221
2018-01-13T07:26:21.679Z,102214
2018-01-13T07:28:51.590Z,102227
2018-01-13T07:31:21.484Z,102219
2018-01-13T07:33:51.423Z,102215
2018-01-13T07:36:21.338Z,102221
2018-01-13T07:38:51.204Z,102220
2018-01-13T07:41:21.177Z,102217
2018-01-13T07:43:51.046Z,102218
2018-01-13T07:46:20.968Z,102229
2018-01-13T07:48:50.831Z,102240
2018-01-13T07:51:20.685Z,102230
2018-01-13T07:53:50.650Z,102227
2018-01-13T07:56:20.523Z,102241
2018-01-13T07:58:50.409Z,102231
2018-01-13T08:01:20.282Z,102235
2018-01-13T08:03:50.186Z,102235
2018-01-13T08:06:20.048Z,102235
2018-01-13T08:08:49.966Z,102243
2018-01-13T08:11:19.828Z,102243
2018-01-13T08:13:49.799Z,102244
2018-01-13T08:16:19.740Z,102244
2018-01-13T08:18:49.604Z,102245
2018-01-13T08:21:19.501Z,102244
2018-01-13T08:23:49.441Z,102241
2018-01-13T08:26:19.357Z,102241
2018-01-13T08:28:49.284Z,102242
2018-01-13T08:31:19.245Z,102245
2018-01-13T08:33:49.467Z,102241
2018-01-13T08:36:19.381Z,102246
2018-01-13T08:38:49.252Z,102253
2018-01-13T08:41:19.168Z,102253
2018-01-13T08:43:49.024Z,102253
2018-01-13T08:46:18.924Z,102255
2018-01-13T08:48:48.790Z,102249
2018-01-13T08:51:18.644Z,102252
2018-01-13T08:53:48.529Z,102249
2018-01-13T08:56:18.398Z,102259
2018-01-13T08:58:48.283Z,102252
2018-01-13T09:04:24.584Z,102249
2018-01-13T09:06:54.450Z,102247
2018-01-13T09:09:24.349Z,102250
2018-01-13T09:11:54.235Z,102240
2018-01-13T09:14:24.134Z,102268
2018-01-13T09:16:54.008Z,102253
2018-01-13T09:19:23.919Z,102266
2018-01-13T09:21:53.791Z,102254
2018-01-13T09:24:23.653Z,102257
2018-01-13T09:26:53.569Z,102250
2018-01-13T09:29:23.463Z,102259
2018-01-13T09:31:54.309Z,102252
2018-01-13T09:34:24.292Z,102266
2018-01-13T09:36:54.200Z,102263
2018-01-13T09:39:24.076Z,102263
2018-01-13T09:41:54.077Z,102264
2018-01-13T09:44:23.954Z,102265
2018-01-13T09:46:53.796Z,102271
2018-01-13T09:49:23.709Z,102277
2018-01-13T09:51:53.618Z,102275
2018-01-13T09:54:23.542Z,102266
2018-01-13T09:56:53.443Z,102265
2018-01-13T09:59:23.370Z,102270
2018-01-13T10:01:53.259Z,102267
2018-01-13T10:04:23.167Z,102271
2018-01-13T10:06:53.013Z,102268
2018-01-13T10:09:22.895Z,102269
2018-01-13T10:11:52.758Z,102274
2018-01-13T10:14:22.642Z,102276
2018-01-13T10:16:52.541Z,102269
2018-01-13T10:19:22.415Z,102274
2018-01-13T10:21:52.338Z,102274
2018-01-13T10:24:22.213Z,102272
2018-01-13T10:26:52.109Z,102270
2018-01-13T10:29:21.953Z,102270
2018-01-13T10:31:51.860Z,102268
2018-01-13T10:34:21.738Z,102270
2018-01-13T10:36:51.631Z,102262
2018-01-13T10:39:21.640Z,102271
2018-01-13T10:41:51.525Z,102273
2018-01-13T10:44:21.552Z,102264
2018-01-13T10:46:51.446Z,102261
2018-01-13T10:49:21.368Z,102271
2018-01-13T10:51:51.221Z,102264
2018-01-13T10:54:21.157Z,102264
2018-01-13T10:56:51.009Z,102256
2018-01-13T10:59:20.922Z,102259
2018-01-13T11:01:50.811Z,102254
2018-01-13T11:04:20.670Z,102257
2018-01-13T11:06:50.575Z,102265
2018-01-13T11:09:20.706Z,102253
2018-01-13T11:11:50.654Z,102259
2018-01-13T11:14:20.685Z,102244
2018-01-13T11:16:50.797Z,102254
2018-01-13T11:19:20.678Z,102258
2018-01-13T11:21:50.557Z,102256
2018-01-13T11:24:20.441Z,102263
2018-01-13T11:26:50.347Z,102250
2018-01-13T11:29:20.221Z,102255
2018-01-13T11:31:50.124Z,102254
2018-01-13T11:34:20.027Z,102265
2018-01-13T11:36:49.965Z,102262
2018-01-13T11:39:19.891Z,102270
2018-01-13T11:41:49.779Z,102260
2018-01-13T11:44:19.707Z,102254
2018-01-13T11:46:49.614Z,102247
2018-01-13T11:49:19.560Z,102250
2018-01-13T11:51:49.539Z,102254
2018-01-13T11:54:24.876Z,102184
2018-01-13T11:56:54.748Z,102239
2018-01-13T11:59:24.767Z,102235
2018-01-13T12:01:54.660Z,102236
2018-01-13T12:04:24.603Z,102240
2018-01-13T12:06:54.596Z,102232
2018-01-13T12:09:24.543Z,102223
2018-01-13T12:11:54.553Z,102222
2018-01-13T12:14:24.519Z,102226
2018-01-13T12:16:54.449Z,102226
2018-01-13T12:19:24.729Z,102223
2018-01-13T12:21:54.810Z,102223
2018-01-13T12:24:24.888Z,102217
2018-01-13T12:26:55.571Z,102215
2018-01-13T12:29:25.557Z,102226
2018-01-13T12:31:55.422Z,102212
2018-01-13T12:34:25.359Z,102214
2018-01-13T12:36:55.257Z,102223
2018-01-13T12:39:25.215Z,102220
2018-01-13T12:41:55.216Z,102224
2018-01-13T12:44:25.853Z,102220
2018-01-13T12:46:56.186Z,102226
2018-01-13T12:49:26.249Z,102226
2018-01-13T12:51:56.128Z,102223
2018-01-13T12:54:26.033Z,102219
2018-01-13T12:56:56.113Z,102221
2018-01-13T13:05:32.672Z,102216
2018-01-13T13:08:04.362Z,102209
2018-01-13T13:10:34.337Z,102213
2018-01-13T13:13:04.279Z,102210
2018-01-13T13:15:34.193Z,102207
2018-01-13T13:18:04.089Z,102212
2018-01-13T13:20:34.007Z,102214
2018-01-13T13:23:03.884Z,102214
2018-01-13T13:25:33.826Z,102214
2018-01-13T13:28:03.810Z,102209
2018-01-13T13:30:33.693Z,102214
2018-01-13T13:33:03.612Z,102140
2018-01-13T13:35:33.552Z,102204
2018-01-13T13:38:03.441Z,102208
2018-01-13T13:40:33.600Z,102195
2018-01-13T13:43:03.528Z,102198
2018-01-13T13:45:33.515Z,102199
2018-01-13T13:48:03.516Z,102207
2018-01-13T13:50:34.249Z,102208
2018-01-13T13:53:05.164Z,102198
2018-01-13T13:55:35.059Z,102201
2018-01-13T13:58:05.043Z,102202
2018-01-13T14:00:34.953Z,102190
2018-01-13T14:03:04.857Z,102206
2018-01-13T14:05:34.790Z,102219
2018-01-13T14:08:04.685Z,102202
2018-01-13T14:10:34.618Z,102197
2018-01-13T14:13:04.549Z,102202
2018-01-13T14:15:34.610Z,102196
2018-01-13T14:18:04.553Z,102195
2018-01-13T14:20:34.522Z,102192
2018-01-13T14:23:04.486Z,102197
2018-01-13T14:25:34.478Z,102201
2018-01-13T14:28:04.399Z,102174
2018-01-13T14:30:34.355Z,102201
2018-01-13T14:33:04.232Z,102194
2018-01-13T14:35:34.170Z,102190
2018-01-13T14:38:04.124Z,102188
2018-01-13T14:40:34.069Z,102186
2018-01-13T14:43:03.957Z,102192
2018-01-13T14:45:33.896Z,102197
2018-01-13T14:48:03.803Z,102191
2018-01-13T14:50:33.759Z,102192
2018-01-13T14:53:03.684Z,102187
2018-01-13T14:55:33.580Z,102189
2018-01-13T14:58:04.191Z,102191
2018-01-13T15:00:34.127Z,102193
2018-01-13T15:03:04.039Z,102196
2018-01-13T15:05:34.038Z,102193
2018-01-13T15:08:03.947Z,102195
2018-01-13T15:10:33.850Z,102191
2018-01-13T15:13:03.814Z,102192
2018-01-13T15:15:33.885Z,102183
2018-01-13T15:18:03.815Z,102191
2018-01-13T15:20:33.778Z,102195
2018-01-13T15:23:03.699Z,102194
2018-01-13T15:25:33.653Z,102192
2018-01-13T15:28:03.630Z,102191
2018-01-13T15:30:33.541Z,102198
2018-01-13T15:33:03.479Z,102194
2018-01-13T15:35:33.435Z,102199
2018-01-13T15:38:03.388Z,102205
2018-01-13T15:40:33.467Z,102211
2018-01-13T15:43:03.538Z,102204
2018-01-13T15:45:33.542Z,102211
2018-01-13T15:48:03.488Z,102212
2018-01-13T15:50:33.467Z,102218
2018-01-13T15:53:03.466Z,102186
2018-01-13T15:55:33.399Z,102222
2018-01-13T15:58:03.310Z,102222
2018-01-13T16:00:33.452Z,102222
2018-01-13T16:03:03.363Z,102214
2018-01-13T16:05:33.527Z,102254
2018-01-13T16:08:03.439Z,102222
2018-01-13T16:10:33.381Z,102220
2018-01-13T16:13:03.331Z,102205
2018-01-13T16:15:33.282Z,102211
2018-01-13T16:18:03.158Z,102206
2018-01-13T16:20:33.086Z,102199
2018-01-13T16:23:03.084Z,102206
2018-01-13T16:25:33.894Z,102207
2018-01-13T16:28:03.825Z,102196
2018-01-13T16:30:33.834Z,102207
2018-01-13T16:33:03.736Z,102207
2018-01-13T16:35:33.665Z,102217
2018-01-13T16:38:03.592Z,102213
2018-01-13T16:40:33.522Z,102201
2018-01-13T16:43:03.412Z,102204
2018-01-13T16:45:33.520Z,102207
2018-01-13T16:48:03.418Z,102210
2018-01-13T16:50:34.070Z,102205
2018-01-13T16:53:03.989Z,102197
2018-01-13T16:55:33.927Z,102208
2018-01-13T16:58:03.799Z,102204
2018-01-13T17:00:33.731Z,102170
2018-01-13T17:03:03.627Z,102209
2018-01-13T17:05:33.638Z,102206
2018-01-13T17:08:03.596Z,102202
2018-01-13T17:10:33.575Z,102200
2018-01-13T17:13:03.513Z,102204
2018-01-13T17:15:33.458Z,102200
2018-01-13T17:18:03.454Z,102195
2018-01-13T17:23:39.718Z,102200
2018-01-13T17:41:26.133Z,102179
2018-01-13T17:43:56.176Z,102184
2018-01-13T17:46:26.099Z,102185
2018-01-13T17:48:56.119Z,102182
2018-01-13T17:51:26.202Z,102182
2018-01-13T17:53:56.161Z,102179
2018-01-13T17:56:26.318Z,102168
2018-01-13T17:58:56.324Z,102171
2018-01-13T18:01:26.924Z,102174
2018-01-13T18:03:56.886Z,102118
2018-01-13T18:06:26.843Z,102177
2018-01-13T18:08:57.307Z,102178
2018-01-13T18:11:28.053Z,102184
2018-01-13T18:13:58.097Z,102198
2018-01-13T18:16:28.041Z,102199
2018-01-13T18:18:58.219Z,102196
2018-01-13T18:21:28.142Z,102193
2018-01-13T18:24:00.091Z,102197
2018-01-13T18:26:30.058Z,102192
2018-01-13T18:28:59.944Z,102191
2018-01-13T18:31:29.845Z,102196
2018-01-13T18:34:00.579Z,102147
2018-01-13T18:36:30.472Z,102183
2018-01-13T18:39:01.195Z,102122
2018-01-13T18:41:31.224Z,102190
2018-01-13T18:44:01.185Z,102180
2018-01-13T18:46:32.851Z,102181
2018-01-13T18:49:02.805Z,102176
2018-01-13T18:51:32.883Z,102175
2018-01-13T18:54:02.778Z,102174
2018-01-13T18:56:32.710Z,102178
2018-01-13T18:59:02.679Z,102183
2018-01-13T19:01:32.618Z,102191
2018-01-13T19:04:02.561Z,102185
2018-01-13T19:06:32.455Z,102188
2018-01-13T19:09:02.440Z,102193
2018-01-13T19:11:32.361Z,102186
2018-01-13T19:14:02.341Z,102191
2018-01-13T19:16:32.627Z,102187
2018-01-13T19:19:02.754Z,102191
2018-01-13T19:21:32.669Z,102195
2018-01-13T19:24:02.615Z,102192
2018-01-13T19:26:32.611Z,102190
2018-01-13T19:29:02.569Z,102192
2018-01-13T19:31:32.430Z,102195
2018-01-13T19:34:02.410Z,102201
2018-01-13T19:36:32.302Z,102199
2018-01-13T19:39:02.212Z,102188
2018-01-13T19:41:32.093Z,102190
2018-01-13T19:44:02.032Z,102193
2018-01-13T19:46:31.903Z,102193
2018-01-13T19:49:01.939Z,102199
2018-01-13T19:51:32.039Z,102195
2018-01-13T19:54:01.946Z,102196
2018-01-13T19:56:31.859Z,102199
2018-01-13T19:59:01.775Z,102191
2018-01-13T20:01:31.729Z,102185
2018-01-13T20:04:01.688Z,102179
2018-01-13T20:06:31.585Z,102146
2018-01-13T20:09:01.485Z,102189
2018-01-13T20:11:31.443Z,102193
2018-01-13T20:14:01.354Z,102187
2018-01-13T20:16:31.296Z,102183
2018-01-13T20:19:01.205Z,102141
2018-01-13T20:21:31.213Z,102144
2018-01-13T20:24:01.222Z,102186
2018-01-13T20:26:31.121Z,102194
2018-01-13T20:29:01.061Z,102187
2018-01-13T20:31:31.007Z,102194
2018-01-13T20:34:00.949Z,102188
2018-01-13T20:36:30.942Z,102181
2018-01-13T20:39:00.838Z,102193
2018-01-13T20:41:30.837Z,102184
2018-01-13T20:44:00.727Z,102183
2018-01-13T20:46:30.650Z,102182
2018-01-13T20:49:01.441Z,102176
2018-01-13T20:51:31.408Z,102168
2018-01-13T20:54:01.410Z,102174
2018-01-13T20:56:31.307Z,102169
2018-01-13T20:59:01.242Z,102169
2018-01-13T21:01:31.133Z,102161
2018-01-13T21:04:01.112Z,102160
2018-01-13T21:06:31.027Z,102155
2018-01-13T21:09:00.934Z,102172
2018-01-13T21:11:31.175Z,102162
2018-01-13T21:14:01.201Z,102156
2018-01-13T21:16:31.102Z,102158
2018-01-13T21:19:01.009Z,102153
2018-01-13T21:21:31.026Z,102156
2018-01-13T21:24:00.955Z,102142
2018-01-13T21:26:31.054Z,102157
2018-01-13T21:29:00.968Z,102147
2018-01-13T21:31:30.867Z,102139
2018-01-13T21:34:00.781Z,102144
2018-01-13T21:36:30.732Z,102137
2018-01-13T21:39:00.638Z,102141
2018-01-13T21:41:30.604Z,102132
2018-01-13T21:44:00.515Z,102134
2018-01-13T21:46:30.517Z,102133
2018-01-13T21:49:00.435Z,102133
2018-01-13T21:51:30.317Z,102120
2018-01-13T21:54:00.201Z,102128
2018-01-13T21:56:31.174Z,102131
2018-01-13T21:59:01.168Z,102133
2018-01-13T22:01:31.038Z,102128
2018-01-13T22:04:00.937Z,102134
2018-01-13T22:06:30.799Z,102131
2018-01-13T22:09:00.705Z,102130
2018-01-13T22:11:30.636Z,102126
2018-01-13T22:14:02.387Z,102122
2018-01-13T22:16:32.305Z,102141
2018-01-13T22:19:02.205Z,102136
2018-01-13T22:21:32.140Z,102131
2018-01-13T22:24:02.070Z,102125
2018-01-13T22:26:32.031Z,102122
2018-01-13T22:29:01.998Z,102130
2018-01-13T22:31:31.894Z,102125
2018-01-13T22:34:01.952Z,102126
2018-01-13T22:36:31.859Z,102113
2018-01-13T22:39:01.713Z,102118
2018-01-13T22:41:31.596Z,102117
2018-01-13T22:44:02.418Z,102121
2018-01-13T22:46:33.443Z,102116
2018-01-13T22:49:03.448Z,102122
2018-01-13T22:51:33.350Z,102113
2018-01-13T22:54:03.338Z,102110
2018-01-13T22:56:33.229Z,102122
2018-01-13T22:59:03.242Z,102109
2018-01-13T23:01:33.157Z,102112
2018-01-13T23:04:03.105Z,102112
2018-01-13T23:06:32.985Z,102106
2018-01-13T23:09:02.875Z,102105
2018-01-13T23:11:32.746Z,102096
2018-01-13T23:14:02.671Z,102100
2018-01-13T23:16:32.820Z,102102
2018-01-13T23:19:02.733Z,102096
2018-01-13T23:21:32.606Z,102095
2018-01-13T23:24:02.501Z,102089
2018-01-13T23:26:32.493Z,102060
2018-01-13T23:29:02.404Z,102084
2018-01-13T23:31:32.285Z,102094
2018-01-13T23:34:02.216Z,102099
2018-01-13T23:36:32.092Z,102085
2018-01-13T23:39:02.401Z,102089
2018-01-13T23:41:32.265Z,102085
2018-01-13T23:44:02.174Z,102073
2018-01-13T23:46:32.081Z,102092
2018-01-13T23:49:01.953Z,102075
2018-01-13T23:54:37.725Z,102088
2018-01-13T23:57:08.121Z,102092
2018-01-13T23:59:38.079Z,102079
